sensor_id;sensor_type;location;lat;lon;timestamp;pressure;altitude;pressure_sealevel;temperature;humidity
12949;BME280;6539;49.476;8.484;2022-10-16T00:01:31;100328.69;;;17.76;100.00
12949;BME280;6539;49.476;8.484;2022-10-16T00:03:59;100329.00;;;17.78;100.00
12949;BME280;6539;49.476;8.484;2022-10-16T00:06:27;100323.91;;;17.77;100.00
12949;BME280;6539;49.476;8.484;2022-10-16T00:08:55;100311.09;;;17.79;100.00
12949;BME280;6539;49.476;8.484;2022-10-16T00:11:28;100313.13;;;17.79;100.00
12949;BME280;6539;49.476;8.484;2022-10-16T00:13:58;100314.63;;;17.80;100.00
12949;BME280;6539;49.476;8.484;2022-10-16T00:16:28;100307.09;;;17.80;100.00
12949;BME280;6539;49.476;8.484;2022-10-16T00:18:57;100295.97;;;17.80;100.00
12949;BME280;6539;49.476;8.484;2022-10-16T00:21:28;100303.84;;;17.82;100.00
12949;BME280;6539;49.476;8.484;2022-10-16T00:24:05;100315.75;;;17.82;100.00
12949;BME280;6539;49.476;8.484;2022-10-16T00:26:35;100326.06;;;17.82;100.00
12949;BME280;6539;49.476;8.484;2022-10-16T00:29:05;100326.06;;;17.82;100.00
12949;BME280;6539;49.476;8.484;2022-10-16T00:31:32;100315.41;;;17.80;100.00
12949;BME280;6539;49.476;8.484;2022-10-16T00:34:00;100315.41;;;17.80;100.00
12949;BME280;6539;49.476;8.484;2022-10-16T00:36:28;100325.31;;;17.81;100.00
12949;BME280;6539;49.476;8.484;2022-10-16T00:38:58;100326.53;;;17.80;100.00
12949;BME280;6539;49.476;8.484;2022-10-16T00:41:27;100330.88;;;17.81;100.00
12949;BME280;6539;49.476;8.484;2022-10-16T00:44:41;100334.06;;;17.80;100.00
12949;BME280;6539;49.476;8.484;2022-10-16T00:46:47;100340.09;;;17.78;100.00
12949;BME280;6539;49.476;8.484;2022-10-16T00:49:21;100343.66;;;17.79;100.00
12949;BME280;6539;49.476;8.484;2022-10-16T00:51:50;100352.00;;;17.79;100.00
12949;BME280;6539;49.476;8.484;2022-10-16T00:54:23;100332.56;;;17.79;100.00
12949;BME280;6539;49.476;8.484;2022-10-16T00:56:54;100336.84;;;17.80;100.00
12949;BME280;6539;49.476;8.484;2022-10-16T00:59:40;100334.88;;;17.80;100.00
12949;BME280;6539;49.476;8.484;2022-10-16T01:02:11;100330.88;;;17.81;100.00
12949;BME280;6539;49.476;8.484;2022-10-16T01:04:43;100334.88;;;17.80;100.00
12949;BME280;6539;49.476;8.484;2022-10-16T01:10:07;100338.41;;;17.81;100.00
12949;BME280;6539;49.476;8.484;2022-10-16T01:28:57;100343.78;;;17.75;100.00
12949;BME280;6539;49.476;8.484;2022-10-16T01:31:32;100344.69;;;17.72;100.00
12949;BME280;6539;49.476;8.484;2022-10-16T01:34:19;100343.78;;;17.75;100.00
12949;BME280;6539;49.476;8.484;2022-10-16T01:36:54;100341.59;;;17.70;100.00
12949;BME280;6539;49.476;8.484;2022-10-16T01:39:27;100352.56;;;17.74;100.00
12949;BME280;6539;49.476;8.484;2022-10-16T01:42:06;100363.34;;;17.72;100.00
12949;BME280;6539;49.476;8.484;2022-10-16T01:44:38;100358.28;;;17.70;100.00
12949;BME280;6539;49.476;8.484;2022-10-16T01:47:11;100367.66;;;17.73;100.00
12949;BME280;6539;49.476;8.484;2022-10-16T01:49:40;100364.88;;;17.73;100.00
12949;BME280;6539;49.476;8.484;2022-10-16T01:52:22;100361.38;;;17.72;100.00
12949;BME280;6539;49.476;8.484;2022-10-16T01:54:52;100366.47;;;17.74;100.00
12949;BME280;6539;49.476;8.484;2022-10-16T01:57:25;100360.91;;;17.74;100.00
12949;BME280;6539;49.476;8.484;2022-10-16T01:59:58;100360.91;;;17.74;100.00
12949;BME280;6539;49.476;8.484;2022-10-16T02:02:30;100358.91;;;17.74;100.00
12949;BME280;6539;49.476;8.484;2022-10-16T02:05:08;100349.00;;;17.73;100.00
12949;BME280;6539;49.476;8.484;2022-10-16T02:07:36;100353.03;;;17.72;100.00
12949;BME280;6539;49.476;8.484;2022-10-16T02:10:05;100346.06;;;17.68;100.00
12949;BME280;6539;49.476;8.484;2022-10-16T02:12:35;100348.84;;;17.68;100.00
12949;BME280;6539;49.476;8.484;2022-10-16T02:15:03;100353.47;;;17.71;100.00
12949;BME280;6539;49.476;8.484;2022-10-16T02:17:29;100348.38;;;17.69;100.00
12949;BME280;6539;49.476;8.484;2022-10-16T02:20:00;100353.28;;;17.65;100.00
12949;BME280;6539;49.476;8.484;2022-10-16T02:22:48;100357.63;;;17.66;100.00
12949;BME280;6539;49.476;8.484;2022-10-16T02:25:32;100360.06;;;17.64;100.00
12949;BME280;6539;49.476;8.484;2022-10-16T02:28:24;100355.75;;;17.63;100.00
12949;BME280;6539;49.476;8.484;2022-10-16T02:31:00;100351.88;;;17.61;100.00
12949;BME280;6539;49.476;8.484;2022-10-16T02:33:30;100358.69;;;17.60;100.00
12949;BME280;6539;49.476;8.484;2022-10-16T02:35:57;100346.78;;;17.59;100.00
12949;BME280;6539;49.476;8.484;2022-10-16T02:38:28;100347.44;;;17.63;100.00
12949;BME280;6539;49.476;8.484;2022-10-16T02:40:58;100351.72;;;17.64;100.00
12949;BME280;6539;49.476;8.484;2022-10-16T02:43:25;100344.97;;;17.65;100.00
12949;BME280;6539;49.476;8.484;2022-10-16T02:45:54;100345.44;;;17.64;100.00
12949;BME280;6539;49.476;8.484;2022-10-16T02:48:19;100344.66;;;17.63;100.00
12949;BME280;6539;49.476;8.484;2022-10-16T02:50:46;100351.72;;;17.64;100.00
12949;BME280;6539;49.476;8.484;2022-10-16T02:53:14;100358.06;;;17.65;100.00
12949;BME280;6539;49.476;8.484;2022-10-16T02:55:42;100367.50;;;17.67;100.00
12949;BME280;6539;49.476;8.484;2022-10-16T02:58:08;100366.59;;;17.70;100.00
12949;BME280;6539;49.476;8.484;2022-10-16T03:00:33;100376.94;;;17.70;100.00
12949;BME280;6539;49.476;8.484;2022-10-16T03:03:01;100376.94;;;17.70;100.00
12949;BME280;6539;49.476;8.484;2022-10-16T03:05:27;100368.13;;;17.71;100.00
12949;BME280;6539;49.476;8.484;2022-10-16T03:07:58;100369.69;;;17.72;100.00
12949;BME280;6539;49.476;8.484;2022-10-16T03:10:26;100361.47;;;17.69;100.00
12949;BME280;6539;49.476;8.484;2022-10-16T03:12:53;100358.69;;;17.69;100.00
12949;BME280;6539;49.476;8.484;2022-10-16T03:15:21;100364.13;;;17.72;100.00
12949;BME280;6539;49.476;8.484;2022-10-16T03:17:49;100358.28;;;17.70;100.00
12949;BME280;6539;49.476;8.484;2022-10-16T03:20:15;100354.19;;;17.62;100.00
12949;BME280;6539;49.476;8.484;2022-10-16T03:22:41;100364.97;;;17.60;100.00
12949;BME280;6539;49.476;8.484;2022-10-16T03:25:08;100358.47;;;17.54;100.00
12949;BME280;6539;49.476;8.484;2022-10-16T03:27:35;100365.59;;;17.55;100.00
12949;BME280;6539;49.476;8.484;2022-10-16T03:30:05;100365.59;;;17.55;100.00
12949;BME280;6539;49.476;8.484;2022-10-16T03:32:31;100366.03;;;17.53;100.00
12949;BME280;6539;49.476;8.484;2022-10-16T03:34:56;100355.69;;;17.54;100.00
12949;BME280;6539;49.476;8.484;2022-10-16T03:37:25;100360.94;;;17.52;100.00
12949;BME280;6539;49.476;8.484;2022-10-16T03:39:51;100357.38;;;17.51;100.00
12949;BME280;6539;49.476;8.484;2022-10-16T03:42:17;100366.16;;;17.50;100.00
12949;BME280;6539;49.476;8.484;2022-10-16T03:44:43;100369.72;;;17.50;100.00
12949;BME280;6539;49.476;8.484;2022-10-16T03:47:09;100368.13;;;17.49;100.00
12949;BME280;6539;49.476;8.484;2022-10-16T03:49:37;100376.81;;;17.51;100.00
12949;BME280;6539;49.476;8.484;2022-10-16T03:52:03;100372.34;;;17.54;100.00
12949;BME280;6539;49.476;8.484;2022-10-16T03:54:28;100377.75;;;17.58;100.00
12949;BME280;6539;49.476;8.484;2022-10-16T03:56:54;100383.31;;;17.58;100.00
12949;BME280;6539;49.476;8.484;2022-10-16T03:59:20;100383.91;;;17.52;100.00
12949;BME280;6539;49.476;8.484;2022-10-16T04:01:46;100388.38;;;17.50;100.00
12949;BME280;6539;49.476;8.484;2022-10-16T04:04:11;100390.69;;;17.51;100.00
12949;BME280;6539;49.476;8.484;2022-10-16T04:06:39;100390.09;;;17.57;100.00
12949;BME280;6539;49.476;8.484;2022-10-16T04:09:05;100390.44;;;17.59;100.00
12949;BME280;6539;49.476;8.484;2022-10-16T04:11:31;100393.53;;;17.61;100.00
12949;BME280;6539;49.476;8.484;2022-10-16T04:14:02;100391.53;;;17.61;100.00
12949;BME280;6539;49.476;8.484;2022-10-16T04:16:28;100395.97;;;17.59;100.00
12949;BME280;6539;49.476;8.484;2022-10-16T04:18:54;100396.75;;;17.59;100.00
12949;BME280;6539;49.476;8.484;2022-10-16T04:21:19;100412.19;;;17.60;100.00
12949;BME280;6539;49.476;8.484;2022-10-16T04:23:48;100416.31;;;17.56;100.00
12949;BME280;6539;49.476;8.484;2022-10-16T04:26:15;100424.97;;;17.58;100.00
12949;BME280;6539;49.476;8.484;2022-10-16T04:28:40;100418.97;;;17.59;100.00
12949;BME280;6539;49.476;8.484;2022-10-16T04:31:07;100413.41;;;17.59;100.00
12949;BME280;6539;49.476;8.484;2022-10-16T04:33:33;100405.41;;;17.61;100.00
12949;BME280;6539;49.476;8.484;2022-10-16T04:36:00;100396.75;;;17.59;100.00
12949;BME280;6539;49.476;8.484;2022-10-16T04:38:27;100402.00;;;17.57;100.00
12949;BME280;6539;49.476;8.484;2022-10-16T04:40:52;100409.88;;;17.59;100.00
12949;BME280;6539;49.476;8.484;2022-10-16T04:43:19;100417.41;;;17.58;100.00
12949;BME280;6539;49.476;8.484;2022-10-16T04:45:48;100404.78;;;17.57;100.00
12949;BME280;6539;49.476;8.484;2022-10-16T04:48:17;100401.22;;;17.57;100.00
12949;BME280;6539;49.476;8.484;2022-10-16T04:50:53;100395.97;;;17.59;100.00
12949;BME280;6539;49.476;8.484;2022-10-16T04:53:19;100392.75;;;17.60;100.00
12949;BME280;6539;49.476;8.484;2022-10-16T04:55:45;100398.63;;;17.62;100.00
12949;BME280;6539;49.476;8.484;2022-10-16T04:58:11;100392.75;;;17.60;100.00
12949;BME280;6539;49.476;8.484;2022-10-16T05:00:39;100378.53;;;17.58;100.00
12949;BME280;6539;49.476;8.484;2022-10-16T05:03:05;100387.34;;;17.57;100.00
12949;BME280;6539;49.476;8.484;2022-10-16T05:05:42;100390.44;;;17.59;100.00
12949;BME280;6539;49.476;8.484;2022-10-16T05:08:08;100401.22;;;17.57;100.00
12949;BME280;6539;49.476;8.484;2022-10-16T05:10:36;100399.22;;;17.57;100.00
12949;BME280;6539;49.476;8.484;2022-10-16T05:13:02;100397.03;;;17.52;100.00
12949;BME280;6539;49.476;8.484;2022-10-16T05:15:31;100392.31;;;17.49;100.00
12949;BME280;6539;49.476;8.484;2022-10-16T05:17:57;100399.78;;;17.52;100.00
12949;BME280;6539;49.476;8.484;2022-10-16T05:20:23;100398.34;;;17.47;100.00
12949;BME280;6539;49.476;8.484;2022-10-16T05:22:49;100390.25;;;17.40;100.00
12949;BME280;6539;49.476;8.484;2022-10-16T05:25:18;100385.50;;;17.41;100.00
12949;BME280;6539;49.476;8.484;2022-10-16T05:27:47;100377.50;;;17.43;100.00
12949;BME280;6539;49.476;8.484;2022-10-16T05:30:19;100376.28;;;17.44;100.00
12949;BME280;6539;49.476;8.484;2022-10-16T05:32:50;100389.50;;;17.40;100.00
12949;BME280;6539;49.476;8.484;2022-10-16T05:35:20;100385.97;;;17.39;100.00
12949;BME280;6539;49.476;8.484;2022-10-16T05:37:46;100373.88;;;17.33;100.00
12949;BME280;6539;49.476;8.484;2022-10-16T05:40:13;100369.88;;;17.34;100.00
12949;BME280;6539;49.476;8.484;2022-10-16T05:42:40;100373.75;;;17.37;100.00
12949;BME280;6539;49.476;8.484;2022-10-16T05:45:10;100389.63;;;17.36;100.00
12949;BME280;6539;49.476;8.484;2022-10-16T05:47:42;100405.72;;;17.41;100.00
12949;BME280;6539;49.476;8.484;2022-10-16T05:50:12;100421.78;;;17.46;100.00
12949;BME280;6539;49.476;8.484;2022-10-16T05:52:40;100432.44;;;17.48;100.00
12949;BME280;6539;49.476;8.484;2022-10-16T05:55:07;100422.53;;;17.47;100.00
12949;BME280;6539;49.476;8.484;2022-10-16T05:57:33;100412.78;;;17.42;100.00
12949;BME280;6539;49.476;8.484;2022-10-16T05:59:59;100415.31;;;17.49;100.00
12949;BME280;6539;49.476;8.484;2022-10-16T06:02:27;100417.78;;;17.47;100.00
12949;BME280;6539;49.476;8.484;2022-10-16T06:04:55;100419.44;;;17.45;100.00
12949;BME280;6539;49.476;8.484;2022-10-16T06:07:21;100429.44;;;17.42;100.00
12949;BME280;6539;49.476;8.484;2022-10-16T06:09:53;100430.13;;;17.46;100.00
12949;BME280;6539;49.476;8.484;2022-10-16T06:12:20;100437.97;;;17.48;100.00
12949;BME280;6539;49.476;8.484;2022-10-16T06:14:46;100443.88;;;17.50;100.00
12949;BME280;6539;49.476;8.484;2022-10-16T06:17:18;100447.75;;;17.52;100.00
12949;BME280;6539;49.476;8.484;2022-10-16T06:19:46;100455.00;;;17.50;100.00
12949;BME280;6539;49.476;8.484;2022-10-16T06:22:14;100452.22;;;17.50;100.00
12949;BME280;6539;49.476;8.484;2022-10-16T06:24:42;100447.19;;;17.45;100.00
12949;BME280;6539;49.476;8.484;2022-10-16T06:27:08;100446.44;;;17.44;100.00
12949;BME280;6539;49.476;8.484;2022-10-16T06:29:36;100441.66;;;17.45;100.00
12949;BME280;6539;49.476;8.484;2022-10-16T06:32:04;100440.91;;;17.44;100.00
12949;BME280;6539;49.476;8.484;2022-10-16T06:34:30;100460.19;;;17.48;100.00
12949;BME280;6539;49.476;8.484;2022-10-16T06:36:58;100458.94;;;17.49;100.00
12949;BME280;6539;49.476;8.484;2022-10-16T06:39:24;100459.31;;;17.51;100.00
12949;BME280;6539;49.476;8.484;2022-10-16T06:41:50;100460.53;;;17.50;100.00
12949;BME280;6539;49.476;8.484;2022-10-16T06:44:16;100467.97;;;17.53;100.00
12949;BME280;6539;49.476;8.484;2022-10-16T06:46:42;100478.16;;;17.56;100.00
12949;BME280;6539;49.476;8.484;2022-10-16T06:49:10;100481.72;;;17.57;100.00
12949;BME280;6539;49.476;8.484;2022-10-16T06:51:38;100481.59;;;17.60;100.00
12949;BME280;6539;49.476;8.484;2022-10-16T06:54:06;100482.22;;;17.64;100.00
12949;BME280;6539;49.476;8.484;2022-10-16T06:56:35;100486.91;;;17.67;100.00
12949;BME280;6539;49.476;8.484;2022-10-16T06:59:06;100497.22;;;17.67;100.00
12949;BME280;6539;49.476;8.484;2022-10-16T07:01:32;100497.53;;;17.69;100.00
12949;BME280;6539;49.476;8.484;2022-10-16T07:03:59;100500.63;;;17.71;100.00
12949;BME280;6539;49.476;8.484;2022-10-16T07:06:26;100505.75;;;17.72;100.00
12949;BME280;6539;49.476;8.484;2022-10-16T07:08:53;100502.19;;;17.72;100.00
12949;BME280;6539;49.476;8.484;2022-10-16T07:11:22;100501.75;;;17.73;100.00
12949;BME280;6539;49.476;8.484;2022-10-16T07:13:49;100513.50;;;17.77;100.00
12949;BME280;6539;49.476;8.484;2022-10-16T07:16:22;100522.94;;;17.80;100.00
12949;BME280;6539;49.476;8.484;2022-10-16T07:18:50;100525.28;;;17.81;100.00
12949;BME280;6539;49.476;8.484;2022-10-16T07:21:19;100525.84;;;17.76;100.00
12949;BME280;6539;49.476;8.484;2022-10-16T07:23:51;100532.19;;;17.77;100.00
12949;BME280;6539;49.476;8.484;2022-10-16T07:26:20;100527.28;;;17.81;100.00
12949;BME280;6539;49.476;8.484;2022-10-16T07:28:46;100528.38;;;17.83;100.00
12949;BME280;6539;49.476;8.484;2022-10-16T07:31:15;100537.94;;;17.82;100.00
12949;BME280;6539;49.476;8.484;2022-10-16T07:33:44;100535.28;;;17.79;100.00
12949;BME280;6539;49.476;8.484;2022-10-16T07:36:12;100541.25;;;17.77;100.00
12949;BME280;6539;49.476;8.484;2022-10-16T07:38:40;100551.81;;;17.82;100.00
12949;BME280;6539;49.476;8.484;2022-10-16T07:41:12;100553.38;;;17.83;100.00
12949;BME280;6539;49.476;8.484;2022-10-16T07:43:46;100558.25;;;17.79;100.00
12949;BME280;6539;49.476;8.484;2022-10-16T07:46:13;100562.13;;;17.82;100.00
12949;BME280;6539;49.476;8.484;2022-10-16T07:48:39;100568.78;;;17.84;100.00
12949;BME280;6539;49.476;8.484;2022-10-16T07:51:08;100565.13;;;17.87;100.00
12949;BME280;6539;49.476;8.484;2022-10-16T07:53:35;100571.34;;;17.91;100.00
12949;BME280;6539;49.476;8.484;2022-10-16T07:56:04;100564.09;;;17.94;100.00
12949;BME280;6539;49.476;8.484;2022-10-16T07:58:34;100573.09;;;17.98;100.00
12949;BME280;6539;49.476;8.484;2022-10-16T08:01:08;100574.19;;;18.00;100.00
12949;BME280;6539;49.476;8.484;2022-10-16T08:03:35;100571.28;;;18.04;100.00
12949;BME280;6539;49.476;8.484;2022-10-16T08:06:02;100566.81;;;18.06;100.00
12949;BME280;6539;49.476;8.484;2022-10-16T08:08:29;100572.25;;;18.10;100.00
12949;BME280;6539;49.476;8.484;2022-10-16T08:10:55;100575.34;;;18.12;100.00
12949;BME280;6539;49.476;8.484;2022-10-16T08:13:26;100578.00;;;18.15;100.00
12949;BME280;6539;49.476;8.484;2022-10-16T08:15:55;100580.47;;;18.13;99.93
12949;BME280;6539;49.476;8.484;2022-10-16T08:18:22;100578.00;;;18.15;99.72
12949;BME280;6539;49.476;8.484;2022-10-16T08:20:58;100574.75;;;18.17;99.46
12949;BME280;6539;49.476;8.484;2022-10-16T08:23:28;100587.41;;;18.18;99.37
12949;BME280;6539;49.476;8.484;2022-10-16T08:25:56;100586.66;;;18.17;97.58
12949;BME280;6539;49.476;8.484;2022-10-16T08:28:24;100582.00;;;18.14;98.12
12949;BME280;6539;49.476;8.484;2022-10-16T08:30:49;100599.56;;;18.11;97.79
12949;BME280;6539;49.476;8.484;2022-10-16T08:33:20;100592.72;;;18.03;98.12
12949;BME280;6539;49.476;8.484;2022-10-16T08:35:53;100592.59;;;18.07;98.96
12949;BME280;6539;49.476;8.484;2022-10-16T08:38:20;100582.38;;;18.04;99.69
12949;BME280;6539;49.476;8.484;2022-10-16T08:40:46;100593.03;;;18.05;100.00
12949;BME280;6539;49.476;8.484;2022-10-16T08:46:29;100627.31;;;18.24;99.08
12949;BME280;6539;49.476;8.484;2022-10-16T08:49:11;100683.97;;;18.26;99.41
12949;BME280;6539;49.476;8.484;2022-10-16T08:51:46;100706.91;;;18.31;99.55
12949;BME280;6539;49.476;8.484;2022-10-16T08:54:42;100705.19;;;18.33;100.00
12949;BME280;6539;49.476;8.484;2022-10-16T08:57:20;100701.75;;;18.29;100.00
12949;BME280;6539;49.476;8.484;2022-10-16T08:59:48;100676.88;;;18.25;100.00
12949;BME280;6539;49.476;8.484;2022-10-16T09:02:34;100658.00;;;18.20;100.00
12949;BME280;6539;49.476;8.484;2022-10-16T09:08:34;100661.63;;;18.30;100.00
12949;BME280;6539;49.476;8.484;2022-10-16T09:15:11;100672.38;;;19.36;100.00
12949;BME280;6539;49.476;8.484;2022-10-16T09:18:45;100676.34;;;19.84;98.41
12949;BME280;6539;49.476;8.484;2022-10-16T09:21:02;100679.78;;;19.97;96.27
12949;BME280;6539;49.476;8.484;2022-10-16T09:23:35;100682.56;;;20.06;95.60
12949;BME280;6539;49.476;8.484;2022-10-16T09:26:05;100677.06;;;20.24;96.09
12949;BME280;6539;49.476;8.484;2022-10-16T09:28:31;100684.16;;;20.34;94.35
12949;BME280;6539;49.476;8.484;2022-10-16T09:30:57;100690.22;;;20.33;91.09
12949;BME280;6539;49.476;8.484;2022-10-16T09:33:29;100689.56;;;20.38;91.26
12949;BME280;6539;49.476;8.484;2022-10-16T09:35:58;100688.34;;;20.48;90.98
12949;BME280;6539;49.476;8.484;2022-10-16T09:38:31;100674.72;;;20.59;88.62
12949;BME280;6539;49.476;8.484;2022-10-16T09:41:00;100679.50;;;20.59;87.77
12949;BME280;6539;49.476;8.484;2022-10-16T09:43:38;100686.00;;;20.65;87.97
12949;BME280;6539;49.476;8.484;2022-10-16T09:48:50;100689.88;;;20.49;86.61
12949;BME280;6539;49.476;8.484;2022-10-16T09:54:16;100687.25;;;20.55;86.30
12949;BME280;6539;49.476;8.484;2022-10-16T09:56:44;100687.53;;;20.75;85.88
12949;BME280;6539;49.476;8.484;2022-10-16T09:59:22;100682.41;;;20.82;84.58
12949;BME280;6539;49.476;8.484;2022-10-16T10:01:56;100687.06;;;20.76;82.10
12949;BME280;6539;49.476;8.484;2022-10-16T10:04:41;100693.09;;;20.75;81.56
12949;BME280;6539;49.476;8.484;2022-10-16T10:07:28;100690.19;;;20.69;82.94
12949;BME280;6539;49.476;8.484;2022-10-16T10:09:58;100690.50;;;20.71;82.55
12949;BME280;6539;49.476;8.484;2022-10-16T10:12:30;100692.66;;;20.76;82.17
12949;BME280;6539;49.476;8.484;2022-10-16T10:15:12;100683.59;;;20.99;82.03
12949;BME280;6539;49.476;8.484;2022-10-16T10:17:54;100693.44;;;21.37;81.54
12949;BME280;6539;49.476;8.484;2022-10-16T10:20:27;100699.72;;;21.79;78.40
12949;BME280;6539;49.476;8.484;2022-10-16T10:22:58;100693.06;;;22.24;75.22
12949;BME280;6539;49.476;8.484;2022-10-16T10:25:53;100695.44;;;22.40;73.50
12949;BME280;6539;49.476;8.484;2022-10-16T10:28:42;100692.13;;;22.27;74.09
12949;BME280;6539;49.476;8.484;2022-10-16T10:31:53;100698.63;;;22.09;73.33
12949;BME280;6539;49.476;8.484;2022-10-16T10:34:58;100695.91;;;22.00;72.79
12949;BME280;6539;49.476;8.484;2022-10-16T10:37:41;100700.19;;;21.86;73.36
12949;BME280;6539;49.476;8.484;2022-10-16T10:40:34;100699.19;;;21.98;73.37
12949;BME280;6539;49.476;8.484;2022-10-16T10:46:31;100690.91;;;22.04;73.21
12949;BME280;6539;49.476;8.484;2022-10-16T10:57:28;100677.94;;;23.41;68.50
12949;BME280;6539;49.476;8.484;2022-10-16T11:00:06;100684.50;;;23.24;68.42
12949;BME280;6539;49.476;8.484;2022-10-16T11:06:08;100682.88;;;23.67;66.13
12949;BME280;6539;49.476;8.484;2022-10-16T11:08:48;100681.91;;;23.90;65.22
12949;BME280;6539;49.476;8.484;2022-10-16T11:11:38;100674.03;;;24.08;63.64
12949;BME280;6539;49.476;8.484;2022-10-16T11:14:52;100682.56;;;23.99;63.88
12949;BME280;6539;49.476;8.484;2022-10-16T11:20:18;100689.13;;;24.11;63.12
12949;BME280;6539;49.476;8.484;2022-10-16T11:22:55;100697.81;;;24.13;62.36
12949;BME280;6539;49.476;8.484;2022-10-16T11:25:33;100690.56;;;24.27;62.16
12949;BME280;6539;49.476;8.484;2022-10-16T11:34:05;100693.19;;;24.56;61.99
12949;BME280;6539;49.476;8.484;2022-10-16T11:37:03;100678.44;;;24.61;61.49
12949;BME280;6539;49.476;8.484;2022-10-16T11:39:34;100679.63;;;24.74;60.44
12949;BME280;6539;49.476;8.484;2022-10-16T11:47:37;100678.97;;;23.99;62.17
12949;BME280;6539;49.476;8.484;2022-10-16T11:50:33;100678.84;;;23.53;64.38
12949;BME280;6539;49.476;8.484;2022-10-16T11:53:23;100684.50;;;23.24;66.14
12949;BME280;6539;49.476;8.484;2022-10-16T11:55:57;100677.06;;;23.06;66.69
12949;BME280;6539;49.476;8.484;2022-10-16T11:58:39;100671.78;;;22.94;66.97
12949;BME280;6539;49.476;8.484;2022-10-16T12:07:09;100670.53;;;22.65;68.80
12949;BME280;6539;49.476;8.484;2022-10-16T12:09:42;100678.69;;;22.54;68.89
12949;BME280;6539;49.476;8.484;2022-10-16T12:12:39;100679.72;;;22.42;69.25
12949;BME280;6539;49.476;8.484;2022-10-16T12:15:31;100674.22;;;22.33;69.74
12949;BME280;6539;49.476;8.484;2022-10-16T12:18:00;100677.56;;;22.23;69.79
12949;BME280;6539;49.476;8.484;2022-10-16T12:20:33;100669.72;;;22.12;70.78
12949;BME280;6539;49.476;8.484;2022-10-16T12:23:16;100667.56;;;22.07;71.22
12949;BME280;6539;49.476;8.484;2022-10-16T12:25:58;100663.41;;;22.02;71.44
12949;BME280;6539;49.476;8.484;2022-10-16T12:28:33;100663.72;;;22.05;71.79
12949;BME280;6539;49.476;8.484;2022-10-16T12:31:03;100652.22;;;22.02;71.97
12949;BME280;6539;49.476;8.484;2022-10-16T12:33:39;100657.53;;;22.00;71.74
12949;BME280;6539;49.476;8.484;2022-10-16T12:36:27;100659.25;;;21.98;72.30
12949;BME280;6539;49.476;8.484;2022-10-16T12:38:55;100656.94;;;21.96;72.30
12949;BME280;6539;49.476;8.484;2022-10-16T12:41:39;100653.38;;;21.96;72.63
12949;BME280;6539;49.476;8.484;2022-10-16T12:44:23;100652.28;;;21.93;72.85
12949;BME280;6539;49.476;8.484;2022-10-16T12:46:51;100657.13;;;21.93;73.36
12949;BME280;6539;49.476;8.484;2022-10-16T12:49:31;100645.66;;;21.91;73.56
12949;BME280;6539;49.476;8.484;2022-10-16T12:51:58;100645.03;;;21.87;73.97
12949;BME280;6539;49.476;8.484;2022-10-16T12:54:28;100653.44;;;21.87;73.95
12949;BME280;6539;49.476;8.484;2022-10-16T13:02:57;100656.59;;;22.04;71.07
12949;BME280;6539;49.476;8.484;2022-10-16T13:20:39;100679.06;;;21.85;70.43
12949;BME280;6539;49.476;8.484;2022-10-16T13:23:31;100677.06;;;21.86;69.96
12949;BME280;6539;49.476;8.484;2022-10-16T13:29:01;100678.00;;;21.83;69.78
12949;BME280;6539;49.476;8.484;2022-10-16T13:31:29;100678.63;;;21.78;69.59
12949;BME280;6539;49.476;8.484;2022-10-16T13:34:01;100681.72;;;21.80;70.17
12949;BME280;6539;49.476;8.484;2022-10-16T13:36:44;100669.94;;;21.76;70.57
12949;BME280;6539;49.476;8.484;2022-10-16T13:39:23;100673.69;;;21.73;70.76
12949;BME280;6539;49.476;8.484;2022-10-16T13:44:41;100679.31;;;21.64;71.50
12949;BME280;6539;49.476;8.484;2022-10-16T13:50:12;100664.47;;;21.58;71.92
12949;BME280;6539;49.476;8.484;2022-10-16T13:52:39;100668.50;;;21.57;71.56
12949;BME280;6539;49.476;8.484;2022-10-16T13:55:15;100667.25;;;21.58;71.69
12949;BME280;6539;49.476;8.484;2022-10-16T13:57:42;100680.09;;;21.64;71.19
12949;BME280;6539;49.476;8.484;2022-10-16T14:00:28;100674.69;;;21.61;71.74
12949;BME280;6539;49.476;8.484;2022-10-16T14:03:05;100678.13;;;21.56;71.42
12949;BME280;6539;49.476;8.484;2022-10-16T14:05:32;100672.25;;;21.54;71.66
12949;BME280;6539;49.476;8.484;2022-10-16T14:08:00;100665.28;;;21.49;71.85
12949;BME280;6539;49.476;8.484;2022-10-16T14:10:33;100683.47;;;21.45;72.07
12949;BME280;6539;49.476;8.484;2022-10-16T14:13:07;100676.31;;;21.44;71.95
12949;BME280;6539;49.476;8.484;2022-10-16T14:15:36;100680.06;;;21.41;72.22
12949;BME280;6539;49.476;8.484;2022-10-16T14:18:03;100688.59;;;21.37;72.12
12949;BME280;6539;49.476;8.484;2022-10-16T14:20:34;100684.09;;;21.40;72.15
12949;BME280;6539;49.476;8.484;2022-10-16T14:23:30;100680.72;;;21.36;72.18
12949;BME280;6539;49.476;8.484;2022-10-16T14:28:39;100677.75;;;21.39;72.32
12949;BME280;6539;49.476;8.484;2022-10-16T14:31:30;100668.00;;;21.35;72.78
12949;BME280;6539;49.476;8.484;2022-10-16T14:33:57;100665.66;;;21.33;73.13
12949;BME280;6539;49.476;8.484;2022-10-16T14:36:28;100674.53;;;21.32;73.19
12949;BME280;6539;49.476;8.484;2022-10-16T14:39:06;100678.56;;;21.31;72.73
12949;BME280;6539;49.476;8.484;2022-10-16T14:41:49;100673.91;;;21.27;72.32
12949;BME280;6539;49.476;8.484;2022-10-16T14:44:17;100672.34;;;21.26;72.30
12949;BME280;6539;49.476;8.484;2022-10-16T14:46:45;100683.53;;;21.26;72.70
12949;BME280;6539;49.476;8.484;2022-10-16T14:51:41;100682.78;;;21.26;72.98
12949;BME280;6539;49.476;8.484;2022-10-16T14:54:16;100685.56;;;21.26;73.17
12949;BME280;6539;49.476;8.484;2022-10-16T14:56:57;100686.31;;;21.26;73.49
12949;BME280;6539;49.476;8.484;2022-10-16T14:59:49;100683.19;;;21.34;72.28
12949;BME280;6539;49.476;8.484;2022-10-16T15:02:31;100677.00;;;21.30;72.37
12949;BME280;6539;49.476;8.484;2022-10-16T15:05:26;100674.81;;;21.34;71.94